KGUS

Grissom ARB Airport

Peru, Indiana, USA
METAR KGUS 181156Z AUTO 18003KT 10SM CLR 00/00 A3050 RMK AO2 SLP339 T10041005 10010 21017 52010 $
Observed Flight Rules
Oct-18 @ 11:56 UTC (32 minutes ago) Visual Flight Rules
Wind Visibility Clouds
180° at 3 knots 10 miles
  • Clear skies
Temperatures Readings
Current -0°C / 32°F
Dewpoint -1°C / 30°F
Humidity 93%
Altimeter 30.5" Hg
Pressure 1033.9 hPa
Elevation 247
METAR KGUS 181156Z AUTO 18003KT 10SM CLR 00/00 A3050 RMK AO2 SLP339 T10041005 10010 21017 52010 $
Observed Flight Rules
Oct-18 @ 11:56 UTC
(32 minutes ago)
VFR
Wind Visibility
180° at 3 knots 10 miles
Clouds
  • Clear skies
Temperature Dewpoint
-0°C / 32°F -1°C / 30°F
Humidity Altimeter Pressure
93% 30.5" Hg 1033.9 hPa